Time;durP1;ratioP1;P1;durP2;ratioP2;P2;SDS_P1;SDS_P2;PMS_P1;PMS_P2;Temp;Humidity;BMP_temperature;BMP_pressure;BME280_temperature;BME280_humidity;BME280_pressure;Samples;Min_cycle;Max_cycle;Signal;HPM_P1;HPM_P2
2021/06/14 00:01:56;;;;;;;8.75;3.08;;;18.60;97.80;;;;;;4995548;28;20509;-74
2021/06/14 00:04:21;;;;;;;12.10;2.90;;;18.60;97.70;;;;;;4994592;28;20042;-74
2021/06/14 00:06:47;;;;;;;4.03;3.33;;;18.70;97.60;;;;;;4992189;28;20030;-74
2021/06/14 00:09:17;;;;;;;7.82;2.67;;;18.60;97.50;;;;;;4996559;28;20034;-74
2021/06/14 00:11:42;;;;;;;7.47;2.78;;;18.60;97.40;;;;;;5011097;28;20482;-74
2021/06/14 00:14:08;;;;;;;4.00;2.58;;;18.70;97.30;;;;;;4996466;28;20047;-74
2021/06/14 00:16:35;;;;;;;6.28;2.67;;;18.60;97.30;;;;;;4996570;28;20532;-74
2021/06/14 00:19:04;;;;;;;15.10;3.28;;;18.70;97.30;;;;;;5011384;28;20439;-74
2021/06/14 00:21:30;;;;;;;5.47;3.00;;;18.60;97.20;;;;;;5010653;28;20038;-74
2021/06/14 00:23:56;;;;;;;6.78;2.85;;;18.60;97.10;;;;;;4990879;28;20034;-74
2021/06/14 00:26:21;;;;;;;7.03;2.58;;;18.60;97.00;;;;;;4995780;28;20030;-74
2021/06/14 00:28:47;;;;;;;5.70;2.65;;;18.50;97.10;;;;;;4996046;28;20035;-74
2021/06/14 00:31:13;;;;;;;6.97;2.60;;;18.50;97.10;;;;;;4995863;28;20029;-74
2021/06/14 00:33:39;;;;;;;5.88;2.55;;;18.50;97.10;;;;;;4995704;28;20022;-74
2021/06/14 00:36:06;;;;;;;5.60;2.65;;;18.40;97.20;;;;;;4975496;28;20030;-74
2021/06/14 00:38:32;;;;;;;6.57;2.80;;;18.40;97.20;;;;;;4978382;28;20062;-74
2021/06/14 00:40:58;;;;;;;7.47;2.88;;;18.40;97.20;;;;;;4987513;28;20062;-74
2021/06/14 00:43:23;;;;;;;5.93;2.53;;;18.40;97.30;;;;;;4989311;28;20022;-74
2021/06/14 00:45:52;;;;;;;3.47;2.40;;;18.30;97.40;;;;;;4994376;28;20018;-74
2021/06/14 00:48:18;;;;;;;6.45;2.80;;;18.30;97.50;;;;;;4994190;28;20054;-74
2021/06/14 00:50:56;;;;;;;7.18;2.83;;;18.20;97.60;;;;;;4989133;28;20100;-74
2021/06/14 00:53:37;;;;;;;9.32;3.00;;;18.20;97.60;;;;;;4979049;28;20029;-74
2021/06/14 00:56:05;;;;;;;9.35;3.35;;;18.20;97.70;;;;;;4976754;28;20185;-74
2021/06/14 00:58:31;;;;;;;5.40;2.35;;;18.20;97.80;;;;;;4985901;28;20047;-75
2021/06/14 01:00:57;;;;;;;7.05;3.00;;;18.20;97.80;;;;;;4995464;28;20084;-74
2021/06/14 01:03:23;;;;;;;9.35;2.95;;;18.10;97.80;;;;;;4995060;28;20041;-74
2021/06/14 01:05:52;;;;;;;8.32;2.90;;;18.10;97.90;;;;;;4995241;28;20022;-74
2021/06/14 01:08:19;;;;;;;9.05;3.10;;;18.10;98.00;;;;;;4995496;28;20027;-74
2021/06/14 01:10:47;;;;;;;9.57;3.00;;;18.10;97.90;;;;;;4995465;28;20034;-74
2021/06/14 01:13:25;;;;;;;5.93;2.78;;;18.20;98.00;;;;;;5010254;28;20034;-74
2021/06/14 01:15:56;;;;;;;;;;;18.20;98.00;;;;;;5002943;28;20129;-74
2021/06/14 01:18:32;;;;;;;4.35;3.10;;;18.10;98.00;;;;;;4995045;28;19932;-74
2021/06/14 01:21:15;;;;;;;6.57;2.92;;;18.10;98.00;;;;;;4995336;28;20483;-74
2021/06/14 01:24:01;;;;;;;16.10;3.63;;;18.10;98.20;;;;;;4993454;28;20033;-74
2021/06/14 01:26:30;;;;;;;7.50;3.25;;;18.10;98.30;;;;;;4993827;28;20042;-74
2021/06/14 01:28:59;;;;;;;8.32;3.80;;;18.00;98.30;;;;;;4994206;28;20177;-74
2021/06/14 01:31:27;;;;;;;9.45;4.20;;;18.00;98.30;;;;;;4994106;28;20030;-74
2021/06/14 01:33:54;;;;;;;5.88;3.38;;;18.00;98.30;;;;;;4989303;28;20031;-75
2021/06/14 01:36:26;;;;;;;8.85;3.45;;;18.00;98.30;;;;;;4995066;28;20101;-74
2021/06/14 01:38:54;;;;;;;8.85;3.70;;;18.00;98.40;;;;;;4995595;28;20030;-74
2021/06/14 01:41:22;;;;;;;5.75;3.85;;;17.90;98.50;;;;;;4993679;28;20037;-74
2021/06/14 01:43:48;;;;;;;10.70;3.67;;;17.90;98.50;;;;;;4994250;28;20030;-74
2021/06/14 01:46:19;;;;;;;7.32;3.88;;;18.00;98.50;;;;;;4993712;28;20034;-74
2021/06/14 01:48:46;;;;;;;13.68;4.57;;;17.90;98.60;;;;;;4990425;28;20022;-75
2021/06/14 01:51:14;;;;;;;12.82;4.80;;;17.80;98.60;;;;;;4989550;28;20415;-74
2021/06/14 01:53:40;;;;;;;12.48;4.57;;;17.80;98.70;;;;;;4994734;28;20038;-74
2021/06/14 01:56:09;;;;;;;6.07;3.97;;;17.80;98.70;;;;;;4994419;28;20092;-74
2021/06/14 01:58:38;;;;;;;11.65;4.28;;;17.80;98.80;;;;;;4992624;28;20150;-74
2021/06/14 02:01:05;;;;;;;8.90;3.75;;;17.70;98.70;;;;;;4994522;28;20113;-74
2021/06/14 02:03:32;;;;;;;3.88;2.70;;;17.70;98.80;;;;;;4994065;28;20076;-74
2021/06/14 02:06:00;;;;;;;11.07;3.87;;;17.70;98.80;;;;;;4993256;28;20121;-74
2021/06/14 02:08:28;;;;;;;10.85;4.35;;;17.60;98.90;;;;;;4992128;28;20034;-75
2021/06/14 02:10:55;;;;;;;;;;;17.60;98.90;;;;;;4994199;28;20030;-74
2021/06/14 02:13:21;;;;;;;10.55;3.78;;;17.60;98.90;;;;;;4992463;28;19910;-74
2021/06/14 02:15:47;;;;;;;11.70;4.65;;;17.60;98.90;;;;;;4993515;28;20105;-74
2021/06/14 02:18:13;;;;;;;7.47;4.38;;;17.60;99.00;;;;;;4992587;28;20447;-74
2021/06/14 02:20:42;;;;;;;11.93;5.07;;;17.60;99.10;;;;;;4993621;28;20022;-74
2021/06/14 02:23:10;;;;;;;9.00;4.93;;;17.60;99.20;;;;;;4993757;28;20035;-74
2021/06/14 02:25:36;;;;;;;9.48;4.07;;;17.70;99.40;;;;;;4996079;28;20023;-74
2021/06/14 02:28:01;;;;;;;8.18;3.67;;;17.60;99.20;;;;;;4993972;28;20026;-75
2021/06/14 02:30:28;;;;;;;11.52;4.63;;;17.60;99.30;;;;;;4992062;28;20420;-74
2021/06/14 02:32:55;;;;;;;11.55;4.53;;;17.60;99.20;;;;;;4992371;28;20034;-74
2021/06/14 02:35:22;;;;;;;8.68;4.63;;;17.60;99.30;;;;;;4993213;28;20518;-74
2021/06/14 02:37:54;;;;;;;9.13;4.45;;;17.60;99.40;;;;;;4993062;28;20022;-74
2021/06/14 02:40:24;;;;;;;8.82;4.80;;;17.60;99.40;;;;;;4994021;28;20427;-74
2021/06/14 02:42:51;;;;;;;8.93;4.80;;;17.60;99.60;;;;;;4983991;28;20014;-74
2021/06/14 02:45:17;;;;;;;11.02;4.28;;;17.50;99.70;;;;;;4991021;28;20034;-74
2021/06/14 02:47:45;;;;;;;12.00;4.72;;;17.60;99.80;;;;;;4990641;28;20022;-74
2021/06/14 02:50:14;;;;;;;10.23;4.28;;;17.50;99.90;;;;;;4980301;28;20050;-74
2021/06/14 02:52:41;;;;;;;8.73;4.82;;;17.40;99.90;;;;;;4992470;28;20014;-74
2021/06/14 02:55:15;;;;;;;10.02;5.13;;;17.40;99.90;;;;;;4993536;28;20026;-74
2021/06/14 02:57:45;;;;;;;14.23;5.72;;;17.40;99.90;;;;;;4994639;28;20105;-75
2021/06/14 03:00:12;;;;;;;11.98;4.82;;;17.40;99.90;;;;;;4993338;28;20479;-74
2021/06/14 03:02:39;;;;;;;13.02;5.35;;;17.40;99.90;;;;;;4991353;28;20029;-74
2021/06/14 03:05:05;;;;;;;12.40;5.47;;;17.40;99.90;;;;;;4992959;28;20034;-74
2021/06/14 03:07:31;;;;;;;14.98;5.22;;;17.40;99.90;;;;;;4993051;28;20019;-74
2021/06/14 03:09:57;;;;;;;9.93;4.90;;;17.40;99.90;;;;;;4992965;28;20023;-74
2021/06/14 03:12:25;;;;;;;9.80;5.15;;;17.40;99.90;;;;;;4991973;28;20027;-74
2021/06/14 03:14:51;;;;;;;8.77;4.68;;;17.40;99.90;;;;;;4988357;28;20582;-74
2021/06/14 03:17:18;;;;;;;11.60;5.03;;;17.40;99.90;;;;;;4992328;28;20030;-74
2021/06/14 03:19:46;;;;;;;11.35;4.85;;;17.30;99.90;;;;;;4981023;28;20155;-74
2021/06/14 03:22:13;;;;;;;15.02;5.00;;;17.30;99.90;;;;;;4992443;28;20026;-74
2021/06/14 03:24:40;;;;;;;9.88;5.28;;;17.30;99.90;;;;;;4993948;28;20033;-74
2021/06/14 03:27:07;;;;;;;12.75;5.47;;;17.30;99.90;;;;;;4993180;28;20790;-74
2021/06/14 03:29:33;;;;;;;17.20;6.38;;;17.30;99.90;;;;;;4991626;28;20034;-74
2021/06/14 03:32:01;;;;;;;9.88;4.93;;;17.30;99.90;;;;;;4991124;28;20022;-74
2021/06/14 03:34:27;;;;;;;11.43;6.20;;;17.30;99.90;;;;;;4990103;28;20089;-74
2021/06/14 03:36:53;;;;;;;10.90;4.93;;;17.20;99.90;;;;;;4993419;28;20113;-74
2021/06/14 03:39:20;;;;;;;13.60;6.03;;;17.20;99.90;;;;;;4993634;28;20041;-74
2021/06/14 03:41:47;;;;;;;10.40;4.80;;;17.20;99.90;;;;;;4992376;28;20070;-74
2021/06/14 03:44:15;;;;;;;12.23;5.32;;;17.30;99.90;;;;;;4992981;28;20451;-74
2021/06/14 03:46:41;;;;;;;19.20;7.03;;;17.30;99.90;;;;;;4992041;28;20054;-74
2021/06/14 03:49:06;;;;;;;10.90;5.43;;;17.30;99.90;;;;;;4992907;28;20513;-74
2021/06/14 03:51:33;;;;;;;7.22;5.00;;;17.20;99.90;;;;;;4990567;28;20093;-74
2021/06/14 03:53:59;;;;;;;11.55;5.18;;;17.20;99.90;;;;;;4987215;28;20030;-74
2021/06/14 03:56:27;;;;;;;8.75;5.10;;;17.20;99.90;;;;;;4993498;28;20142;-74
2021/06/14 03:58:53;;;;;;;8.18;4.53;;;17.20;99.90;;;;;;4992815;28;20058;-74
2021/06/14 04:01:19;;;;;;;9.15;5.28;;;17.20;99.90;;;;;;4992812;28;20034;-74
2021/06/14 04:03:57;;;;;;;12.10;5.85;;;17.20;99.90;;;;;;4992652;28;20042;-74
2021/06/14 04:06:23;;;;;;;11.52;5.50;;;17.20;99.90;;;;;;4992209;28;20038;-74
2021/06/14 04:08:48;;;;;;;8.13;4.53;;;17.20;99.90;;;;;;4992956;28;20360;-74
2021/06/14 04:11:14;;;;;;;13.43;5.55;;;17.20;99.90;;;;;;4987053;28;20031;-74
2021/06/14 04:13:40;;;;;;;10.20;5.32;;;17.20;99.90;;;;;;4996271;28;20037;-74
2021/06/14 04:16:05;;;;;;;12.07;6.15;;;17.20;99.90;;;;;;4996872;28;20031;-74
2021/06/14 04:18:31;;;;;;;15.35;5.53;;;17.20;99.90;;;;;;4996937;28;20027;-74
2021/06/14 04:20:56;;;;;;;13.00;5.53;;;17.10;99.90;;;;;;4996538;28;20030;-74
2021/06/14 04:23:22;;;;;;;7.43;4.82;;;17.10;99.90;;;;;;4996152;28;20464;-74
2021/06/14 04:25:47;;;;;;;9.85;4.57;;;17.10;99.90;;;;;;4992317;28;20026;-74
2021/06/14 04:28:13;;;;;;;10.02;5.10;;;17.00;99.90;;;;;;4993841;28;20542;-74
2021/06/14 04:30:39;;;;;;;12.55;4.95;;;17.00;99.90;;;;;;4995064;28;20030;-74
2021/06/14 04:33:05;;;;;;;8.93;5.47;;;17.10;99.90;;;;;;4995347;28;20505;-74
2021/06/14 04:35:31;;;;;;;8.07;5.53;;;17.10;99.90;;;;;;4996059;28;20037;-74
2021/06/14 04:37:57;;;;;;;11.07;6.50;;;17.20;99.90;;;;;;4996607;28;20128;-73
2021/06/14 04:40:22;;;;;;;12.32;5.28;;;17.20;99.90;;;;;;4995271;28;20026;-73
2021/06/14 04:42:48;;;;;;;7.28;4.97;;;17.30;99.90;;;;;;4991439;28;20022;-73
2021/06/14 04:45:14;;;;;;;15.20;6.97;;;17.30;99.90;;;;;;4996033;28;20108;-74
2021/06/14 04:47:40;;;;;;;13.07;5.53;;;17.40;99.90;;;;;;4997921;28;20471;-74
2021/06/14 04:50:07;;;;;;;16.30;6.18;;;17.50;99.90;;;;;;4995496;28;20030;-74
2021/06/14 04:52:33;;;;;;;9.63;5.82;;;17.50;99.90;;;;;;4996612;28;20394;-74
2021/06/14 04:54:58;;;;;;;11.75;6.13;;;17.50;99.90;;;;;;4995330;28;20030;-74
2021/06/14 04:57:25;;;;;;;27.83;10.77;;;17.60;99.90;;;;;;5000494;28;20544;-74
2021/06/14 04:59:51;;;;;;;21.25;8.73;;;17.70;99.90;;;;;;5001970;28;20498;-74
2021/06/14 05:02:21;;;;;;;13.50;7.15;;;17.70;99.90;;;;;;4995423;28;20037;-74
2021/06/14 05:04:46;;;;;;;13.02;6.15;;;17.80;99.90;;;;;;4995750;28;20026;-74
2021/06/14 05:07:12;;;;;;;10.35;5.35;;;17.90;99.90;;;;;;5012775;28;20077;-74
2021/06/14 05:09:38;;;;;;;10.48;6.05;;;17.90;99.90;;;;;;4997020;28;20030;-74
2021/06/14 05:12:04;;;;;;;14.60;7.07;;;18.00;99.90;;;;;;4997043;28;20035;-74
2021/06/14 05:14:30;;;;;;;11.95;6.45;;;18.10;99.90;;;;;;4991098;28;20113;-74
2021/06/14 05:16:55;;;;;;;11.52;5.60;;;18.10;99.90;;;;;;4996357;28;20082;-74
2021/06/14 05:19:21;;;;;;;11.50;5.72;;;18.20;99.90;;;;;;4996889;28;20097;-74
2021/06/14 05:21:47;;;;;;;16.20;6.13;;;18.30;99.90;;;;;;4997838;28;20026;-74
2021/06/14 05:24:13;;;;;;;10.13;5.50;;;18.40;99.70;;;;;;4996104;28;20053;-74
2021/06/14 05:26:38;;;;;;;11.75;6.57;;;18.50;99.60;;;;;;4997459;28;20129;-74
2021/06/14 05:29:04;;;;;;;12.75;7.05;;;18.60;99.40;;;;;;4993958;28;20109;-74
2021/06/14 05:31:29;;;;;;;13.05;6.70;;;18.70;99.00;;;;;;4995865;28;20026;-74
2021/06/14 05:33:55;;;;;;;14.30;6.13;;;18.90;99.00;;;;;;4998512;28;20116;-74
2021/06/14 05:36:21;;;;;;;11.57;5.90;;;18.90;98.90;;;;;;4996070;28;20022;-74
2021/06/14 05:38:46;;;;;;;12.52;6.45;;;19.00;98.90;;;;;;5008494;28;20037;-74
2021/06/14 05:41:12;;;;;;;14.90;7.43;;;19.10;98.70;;;;;;5011854;28;20045;-74
2021/06/14 05:43:38;;;;;;;9.57;5.97;;;19.20;98.70;;;;;;5011477;28;20029;-74
2021/06/14 05:46:06;;;;;;;13.30;6.57;;;19.30;98.50;;;;;;5009464;28;20069;-74
2021/06/14 05:48:32;;;;;;;12.82;6.93;;;19.40;98.40;;;;;;5014418;28;20027;-74
2021/06/14 05:50:57;;;;;;;15.77;6.25;;;19.50;98.40;;;;;;5014074;28;20054;-74
2021/06/14 05:53:24;;;;;;;13.57;7.15;;;19.50;98.40;;;;;;5010166;28;20098;-74
2021/06/14 05:55:49;;;;;;;17.33;7.55;;;19.60;97.90;;;;;;5013303;28;20057;-74
2021/06/14 05:58:18;;;;;;;11.43;6.78;;;19.70;98.10;;;;;;5014581;28;20014;-75
2021/06/14 06:00:45;;;;;;;15.50;7.22;;;20.00;98.00;;;;;;5029431;28;20648;-75
2021/06/14 06:03:11;;;;;;;11.85;7.18;;;20.30;97.60;;;;;;5014338;28;20069;-74
2021/06/14 06:05:37;;;;;;;17.77;7.20;;;20.70;97.30;;;;;;5009408;28;20082;-74
2021/06/14 06:08:02;;;;;;;16.77;6.28;;;21.70;96.50;;;;;;5014901;28;20038;-74
2021/06/14 06:10:28;;;;;;;14.82;7.97;;;23.00;95.00;;;;;;5014204;28;20038;-75
2021/06/14 06:12:54;;;;;;;14.77;7.30;;;24.80;93.40;;;;;;5013111;28;20076;-75
2021/06/14 06:15:20;;;;;;;14.65;6.70;;;26.30;91.80;;;;;;5014992;28;20025;-75
2021/06/14 06:17:47;;;;;;;13.95;6.38;;;26.90;91.10;;;;;;5014415;28;20038;-75
2021/06/14 06:20:15;;;;;;;19.25;7.75;;;28.20;90.50;;;;;;5014000;28;20108;-75
2021/06/14 06:22:41;;;;;;;11.02;6.65;;;30.10;88.20;;;;;;5013028;28;20014;-75
2021/06/14 06:25:14;;;;;;;16.38;6.38;;;31.70;85.50;;;;;;5015412;28;20050;-75
2021/06/14 06:27:40;;;;;;;10.15;5.55;;;33.10;81.60;;;;;;5015544;28;20010;-75
2021/06/14 06:30:07;;;;;;;12.13;6.47;;;33.60;79.90;;;;;;5014369;28;20030;-76
2021/06/14 06:32:34;;;;;;;16.80;6.95;;;34.10;78.00;;;;;;5015252;28;20038;-75
2021/06/14 06:34:59;;;;;;;11.67;5.90;;;34.30;76.20;;;;;;5014629;28;20057;-75
2021/06/14 06:37:25;;;;;;;14.95;6.78;;;34.40;75.40;;;;;;5014924;28;20035;-74
2021/06/14 06:39:51;;;;;;;13.40;6.15;;;34.30;74.80;;;;;;5010942;28;20073;-75
2021/06/14 06:42:16;;;;;;;21.13;7.57;;;34.30;74.60;;;;;;5015812;28;20042;-75
2021/06/14 06:44:42;;;;;;;18.67;8.27;;;34.40;74.20;;;;;;5015181;28;20022;-75
2021/06/14 06:47:08;;;;;;;16.52;7.40;;;34.10;73.50;;;;;;5016607;28;20061;-75
2021/06/14 06:49:34;;;;;;;17.67;7.22;;;33.90;73.80;;;;;;5015988;28;20023;-74
2021/06/14 06:52:00;;;;;;;15.82;6.97;;;33.80;73.80;;;;;;5018235;28;20021;-75
2021/06/14 06:54:26;;;;;;;20.47;6.43;;;33.70;73.90;;;;;;5025823;28;20025;-74
2021/06/14 06:56:54;;;;;;;19.52;6.80;;;33.40;73.40;;;;;;5032455;28;20044;-75
2021/06/14 06:59:21;;;;;;;16.88;6.70;;;32.80;73.60;;;;;;5009731;28;20030;-74
2021/06/14 07:01:47;;;;;;;10.40;5.50;;;31.50;75.60;;;;;;5015549;28;20077;-75
2021/06/14 07:04:13;;;;;;;14.45;6.00;;;30.10;77.10;;;;;;5013946;28;20034;-73
2021/06/14 07:06:39;;;;;;;10.57;5.32;;;28.90;78.50;;;;;;5021813;28;20081;-74
2021/06/14 07:09:05;;;;;;;17.95;6.60;;;28.00;80.40;;;;;;5014639;28;20083;-73
2021/06/14 07:11:32;;;;;;;11.25;5.75;;;27.70;79.80;;;;;;5016956;28;20043;-73
2021/06/14 07:13:58;;;;;;;;;;;27.90;79.80;;;;;;5001489;28;20010;-73
2021/06/14 07:16:24;;;;;;;14.70;5.23;;;28.50;80.30;;;;;;5001371;28;20388;-74
2021/06/14 07:18:51;;;;;;;15.70;6.38;;;29.00;79.20;;;;;;5017656;28;20036;-75
2021/06/14 07:21:17;;;;;;;;;;;30.00;78.20;;;;;;4996372;28;20026;-76
2021/06/14 07:23:43;;;;;;;20.87;6.37;;;30.90;77.00;;;;;;4997872;28;19925;-75
2021/06/14 07:26:09;;;;;;;19.58;5.45;;;31.90;75.80;;;;;;5000096;28;20029;-75
2021/06/14 07:28:36;;;;;;;12.10;6.20;;;32.20;74.80;;;;;;4997845;28;20037;-74
2021/06/14 07:31:03;;;;;;;12.57;5.70;;;32.40;73.70;;;;;;4998789;28;20097;-76
2021/06/14 07:33:28;;;;;;;;;;;32.20;73.40;;;;;;4998411;28;20058;-76
2021/06/14 07:35:54;;;;;;;16.87;5.63;;;31.90;73.50;;;;;;4998386;28;19913;-80
2021/06/14 07:38:20;;;;;;;12.48;4.78;;;31.80;73.60;;;;;;4994225;28;20053;-77
2021/06/14 07:40:46;;;;;;;10.07;4.78;;;31.60;74.30;;;;;;4997825;28;20038;-79
2021/06/14 07:43:12;;;;;;;15.75;5.93;;;31.50;75.00;;;;;;5003193;28;20026;-77
2021/06/14 07:45:43;;;;;;;10.25;6.15;;;31.20;75.10;;;;;;4997933;28;20394;-74
2021/06/14 07:48:10;;;;;;;16.70;5.25;;;30.80;74.60;;;;;;4999722;28;20113;-75
2021/06/14 07:50:36;;;;;;;12.80;6.18;;;30.20;75.10;;;;;;5001772;28;20053;-76
2021/06/14 07:53:03;;;;;;;16.90;8.40;;;29.50;76.20;;;;;;5002042;28;20348;-74
2021/06/14 07:55:29;;;;;;;17.80;5.97;;;29.00;76.90;;;;;;4998943;28;20126;-74
2021/06/14 07:57:54;;;;;;;10.53;6.03;;;28.70;77.30;;;;;;4994372;28;20054;-75
2021/06/14 08:00:20;;;;;;;10.90;5.40;;;28.70;76.60;;;;;;4982906;28;20309;-74
2021/06/14 08:02:47;;;;;;;15.40;5.93;;;28.80;77.00;;;;;;5000575;28;20041;-76
2021/06/14 08:05:13;;;;;;;;;;;29.10;75.20;;;;;;4998800;28;20039;-75
2021/06/14 08:07:40;;;;;;;12.52;4.75;;;29.20;75.20;;;;;;5000081;28;20441;-75
2021/06/14 08:10:10;;;;;;;8.02;5.03;;;29.40;75.80;;;;;;5013922;28;20029;-75
2021/06/14 08:12:43;;;;;;;10.00;4.00;;;29.50;74.90;;;;;;4999125;28;20463;-73
2021/06/14 08:15:10;;;;;;;8.90;4.65;;;29.50;74.90;;;;;;4998566;28;20058;-74
2021/06/14 08:17:36;;;;;;;14.55;4.32;;;29.80;74.40;;;;;;4999260;28;20037;-75
2021/06/14 08:20:13;;;;;;;6.70;4.33;;;29.80;74.30;;;;;;5000427;28;20030;-74
2021/06/14 08:25:23;;;;;;;12.63;4.95;;;30.00;73.20;;;;;;4999215;28;20526;-74
2021/06/14 08:27:48;;;;;;;11.30;3.80;;;29.90;73.00;;;;;;4991927;28;20018;-74
2021/06/14 08:30:17;;;;;;;8.87;4.57;;;30.00;73.50;;;;;;4991743;28;20034;-73
2021/06/14 08:32:43;;;;;;;14.77;4.18;;;30.20;72.80;;;;;;4998921;28;20081;-73
2021/06/14 08:35:14;;;;;;;11.02;4.95;;;30.50;72.70;;;;;;4998766;28;20027;-73
2021/06/14 08:37:41;;;;;;;10.60;4.68;;;30.80;72.70;;;;;;4997352;28;20100;-74
2021/06/14 08:40:07;;;;;;;6.55;3.88;;;30.90;72.70;;;;;;5000421;28;20022;-72
2021/06/14 08:42:34;;;;;;;11.48;4.38;;;31.10;72.00;;;;;;4994313;28;20610;-73
2021/06/14 08:45:00;;;;;;;5.47;3.75;;;31.00;72.20;;;;;;4995483;28;20387;-74
2021/06/14 08:47:28;;;;;;;8.27;3.90;;;31.00;70.40;;;;;;4992613;28;20034;-74
2021/06/14 08:49:55;;;;;;;10.70;3.63;;;31.30;70.20;;;;;;4999843;28;20030;-74
2021/06/14 08:52:22;;;;;;;6.22;3.33;;;31.10;70.80;;;;;;5000107;28;20037;-73
2021/06/14 08:54:48;;;;;;;6.38;3.33;;;31.20;70.50;;;;;;4998510;28;20041;-70
2021/06/14 08:57:14;;;;;;;8.73;3.87;;;31.60;69.50;;;;;;4998676;28;20026;-76
2021/06/14 08:59:41;;;;;;;8.80;3.60;;;31.80;69.30;;;;;;4998854;28;20034;-74
2021/06/14 09:02:06;;;;;;;;;;;31.80;69.50;;;;;;4999002;28;20057;-74
2021/06/14 09:04:33;;;;;;;8.07;3.60;;;31.70;70.30;;;;;;5001315;28;19913;-75
2021/06/14 09:06:59;;;;;;;7.70;4.43;;;31.70;69.40;;;;;;4999887;28;20269;-75
2021/06/14 09:09:29;;;;;;;9.75;3.97;;;31.80;69.60;;;;;;4998953;28;20466;-75
2021/06/14 09:11:55;;;;;;;8.20;3.88;;;31.80;69.70;;;;;;4998257;28;20031;-74
2021/06/14 09:14:23;;;;;;;14.18;6.03;;;31.20;70.40;;;;;;4998667;28;20031;-74
2021/06/14 09:16:51;;;;;;;10.00;3.95;;;31.30;70.00;;;;;;4998084;28;20058;-75
2021/06/14 09:19:34;;;;;;;10.90;3.83;;;31.10;71.90;;;;;;4997227;28;20034;-74
2021/06/14 09:22:11;;;;;;;7.25;3.47;;;30.10;71.20;;;;;;4980026;28;20031;-75
2021/06/14 09:24:37;;;;;;;6.93;3.85;;;30.10;71.20;;;;;;4987173;28;20088;-75
2021/06/14 09:27:03;;;;;;;7.30;3.23;;;30.30;72.30;;;;;;4996236;28;20473;-75
2021/06/14 09:29:29;;;;;;;6.88;3.67;;;30.30;71.30;;;;;;4992567;28;20029;-75
2021/06/14 09:31:59;;;;;;;14.55;4.18;;;30.10;73.00;;;;;;4996720;28;20109;-75
2021/06/14 09:34:36;;;;;;;11.63;4.75;;;29.90;72.90;;;;;;4983375;28;20037;-75
2021/06/14 09:37:05;;;;;;;8.05;3.50;;;29.90;71.60;;;;;;4988284;28;20119;-75
2021/06/14 09:39:39;;;;;;;5.43;3.15;;;29.90;72.40;;;;;;4994233;28;20465;-74
2021/06/14 09:42:21;;;;;;;5.53;3.25;;;29.50;73.00;;;;;;4994345;28;20041;-74
2021/06/14 09:44:48;;;;;;;8.55;3.30;;;29.20;72.70;;;;;;4986460;28;20058;-73
2021/06/14 09:50:07;;;;;;;5.40;3.00;;;29.40;72.40;;;;;;4990406;28;20034;-73
2021/06/14 09:52:33;;;;;;;8.82;3.17;;;29.60;72.30;;;;;;4988471;28;20050;-75
2021/06/14 09:55:10;;;;;;;10.40;3.78;;;29.80;71.80;;;;;;4993626;28;20038;-75
2021/06/14 09:57:35;;;;;;;7.78;3.30;;;29.80;71.30;;;;;;4993421;28;20128;-75
2021/06/14 10:00:09;;;;;;;6.43;3.20;;;30.10;71.50;;;;;;4995887;28;20133;-81
2021/06/14 10:02:35;;;;;;;7.63;2.92;;;30.60;71.20;;;;;;4999446;28;20062;-76
2021/06/14 10:05:12;;;;;;;11.25;3.30;;;31.40;68.40;;;;;;4998043;28;20026;-77
2021/06/14 10:07:51;;;;;;;8.75;2.83;;;31.60;68.40;;;;;;4993660;28;20015;-77
2021/06/14 10:10:25;;;;;;;6.50;2.58;;;31.40;68.20;;;;;;4988606;28;20022;-76
2021/06/14 10:13:00;;;;;;;5.05;2.75;;;31.80;66.80;;;;;;4990357;28;20120;-77
2021/06/14 10:15:36;;;;;;;6.82;3.42;;;32.40;66.40;;;;;;4990757;28;20034;-76
2021/06/14 10:18:08;;;;;;;4.70;2.80;;;32.70;66.90;;;;;;4995469;28;20403;-75
2021/06/14 10:20:36;;;;;;;3.05;2.75;;;32.80;66.40;;;;;;4989203;28;20030;-75
2021/06/14 10:23:02;;;;;;;6.15;3.13;;;32.80;66.90;;;;;;4991483;28;20033;-76
2021/06/14 10:25:28;;;;;;;11.35;3.03;;;32.90;65.30;;;;;;4992856;28;20030;-76
2021/06/14 10:27:54;;;;;;;7.83;2.93;;;32.80;66.10;;;;;;4996408;28;20117;-76
2021/06/14 10:30:22;;;;;;;4.15;2.60;;;32.30;67.10;;;;;;4999735;28;20164;-76
2021/06/14 10:32:49;;;;;;;5.03;2.60;;;31.70;66.90;;;;;;5000490;28;20069;-78
2021/06/14 10:35:17;;;;;;;8.52;2.83;;;31.60;68.20;;;;;;4999014;28;20121;-79
2021/06/14 10:37:43;;;;;;;8.10;2.88;;;32.00;65.80;;;;;;4991385;28;20030;-75
2021/06/14 10:40:15;;;;;;;4.22;2.70;;;32.40;66.00;;;;;;4997338;28;20583;-76
2021/06/14 10:42:41;;;;;;;11.80;3.08;;;32.90;63.70;;;;;;5000588;28;20058;-75
2021/06/14 10:45:08;;;;;;;;;;;32.90;63.50;;;;;;5001908;28;20033;-74
2021/06/14 10:47:35;;;;;;;10.02;2.95;;;32.80;63.80;;;;;;5012438;28;19928;-78
2021/06/14 10:50:02;;;;;;;12.32;3.38;;;32.80;63.20;;;;;;5028517;28;20084;-77
2021/06/14 10:52:40;;;;;;;7.63;2.53;;;32.40;63.00;;;;;;5016831;28;20018;-77
2021/06/14 10:55:12;;;;;;;11.05;2.75;;;32.00;64.10;;;;;;5016241;28;20045;-77
2021/06/14 10:57:39;;;;;;;10.15;3.30;;;31.90;63.80;;;;;;5023604;28;20089;-77
2021/06/14 11:00:27;;;;;;;8.65;3.30;;;31.50;65.30;;;;;;5023050;28;20038;-79
2021/06/14 11:03:03;;;;;;;5.85;3.33;;;31.20;66.50;;;;;;5028574;28;20058;-78
2021/06/14 11:05:35;;;;;;;8.68;3.00;;;31.00;67.20;;;;;;5025056;28;20033;-77
2021/06/14 11:08:14;;;;;;;7.50;3.20;;;30.50;67.10;;;;;;5004393;28;20022;-78
2021/06/14 11:10:41;;;;;;;6.28;2.60;;;29.80;66.80;;;;;;5014156;28;20085;-78
2021/06/14 11:13:12;;;;;;;8.90;3.38;;;29.50;68.60;;;;;;5020820;28;20045;-79
2021/06/14 11:15:43;;;;;;;8.10;2.55;;;29.60;67.80;;;;;;5016537;28;20007;-77
2021/06/14 11:18:22;;;;;;;9.10;3.40;;;29.20;69.10;;;;;;5013961;28;20065;-78
2021/06/14 11:20:48;;;;;;;6.28;2.72;;;28.80;66.50;;;;;;5014467;28;20121;-78
2021/06/14 11:23:23;;;;;;;5.60;2.78;;;29.00;67.90;;;;;;5018571;28;20042;-78
2021/06/14 11:25:49;;;;;;;8.63;3.85;;;29.20;68.30;;;;;;5021449;28;20027;-79
2021/06/14 11:28:33;;;;;;;7.47;3.28;;;29.00;70.60;;;;;;5019821;28;20042;-78
2021/06/14 11:30:59;;;;;;;7.15;3.38;;;28.90;70.60;;;;;;5017407;28;20013;-79
2021/06/14 11:33:29;;;;;;;8.43;3.13;;;28.80;69.30;;;;;;5027524;28;20049;-79
2021/06/14 11:35:58;;;;;;;12.05;3.40;;;28.90;69.80;;;;;;5026559;28;20030;-78
2021/06/14 11:38:25;;;;;;;7.68;3.20;;;28.90;69.70;;;;;;5036743;28;20030;-80
2021/06/14 11:40:57;;;;;;;11.27;2.80;;;29.20;68.10;;;;;;5036631;28;20108;-79
2021/06/14 11:43:23;;;;;;;8.00;3.05;;;29.40;67.50;;;;;;5022335;28;20038;-78
2021/06/14 11:45:51;;;;;;;9.70;3.30;;;29.20;69.00;;;;;;5014840;28;20061;-77
2021/06/14 11:48:26;;;;;;;6.53;3.08;;;28.50;69.70;;;;;;5021314;28;20041;-79
2021/06/14 11:51:06;;;;;;;8.27;3.70;;;28.50;69.60;;;;;;5006500;28;20002;-78
2021/06/14 11:53:52;;;;;;;7.82;3.83;;;28.90;70.40;;;;;;5013757;28;20019;-77
2021/06/14 11:56:19;;;;;;;13.25;4.32;;;29.10;69.80;;;;;;5015563;28;20006;-77
2021/06/14 11:58:53;;;;;;;6.83;3.77;;;28.80;69.00;;;;;;5015440;28;20069;-79
2021/06/14 12:01:27;;;;;;;12.57;4.35;;;28.70;68.80;;;;;;5011828;28;20047;-77
2021/06/14 12:03:57;;;;;;;13.00;3.03;;;29.10;68.70;;;;;;5015862;28;20022;-78
2021/06/14 12:06:23;;;;;;;8.98;3.65;;;29.10;69.10;;;;;;5009569;28;20030;-78
2021/06/14 12:08:49;;;;;;;11.45;3.03;;;29.20;71.00;;;;;;5011265;28;20009;-77
2021/06/14 12:11:15;;;;;;;3.97;2.65;;;29.40;70.40;;;;;;5011298;28;20029;-81
2021/06/14 12:13:40;;;;;;;13.40;3.45;;;29.70;67.80;;;;;;5006056;28;20054;-79
2021/06/14 12:16:06;;;;;;;11.32;2.88;;;29.90;69.30;;;;;;4998522;28;20026;-78
2021/06/14 12:18:32;;;;;;;9.45;3.20;;;30.00;66.60;;;;;;4996983;28;20056;-79
2021/06/14 12:21:07;;;;;;;8.88;3.17;;;30.20;66.60;;;;;;4998022;28;20062;-80
2021/06/14 12:23:36;;;;;;;5.10;2.88;;;30.40;65.90;;;;;;4996112;28;20038;-80
2021/06/14 12:26:09;;;;;;;6.57;3.63;;;30.50;66.80;;;;;;5010128;28;20319;-81
2021/06/14 12:28:35;;;;;;;25.75;4.43;;;30.50;67.20;;;;;;5005238;28;20022;-78
2021/06/14 12:31:08;;;;;;;8.52;3.35;;;30.70;67.10;;;;;;4997519;28;20064;-79
2021/06/14 12:33:35;;;;;;;15.50;3.63;;;30.50;68.10;;;;;;4998572;28;20029;-79
2021/06/14 12:36:03;;;;;;;7.03;3.22;;;30.40;68.90;;;;;;4999174;28;20010;-76
2021/06/14 12:38:29;;;;;;;12.73;4.05;;;30.40;69.30;;;;;;4997549;28;20027;-78
2021/06/14 12:40:56;;;;;;;10.50;3.37;;;29.90;68.90;;;;;;4998707;28;20026;-78
2021/06/14 12:43:22;;;;;;;8.75;3.22;;;29.80;68.80;;;;;;4997163;28;20317;-78
2021/06/14 12:45:47;;;;;;;15.20;4.88;;;29.70;70.70;;;;;;4998033;28;20033;-77
2021/06/14 12:48:17;;;;;;;12.80;3.88;;;29.40;69.70;;;;;;4995625;28;20092;-78
2021/06/14 12:50:51;;;;;;;6.25;3.90;;;29.30;70.50;;;;;;4997009;28;20140;-78
2021/06/14 12:53:24;;;;;;;12.18;4.57;;;29.20;70.70;;;;;;4994928;28;20057;-79